createdAt,value
2018-05-18T00:01:33.617Z,11.00
2018-05-18T00:04:01.241Z,10.90
2018-05-18T00:06:28.863Z,10.80
2018-05-18T00:08:56.465Z,10.80
2018-05-18T00:11:24.078Z,10.70
2018-05-18T00:13:52.055Z,10.60
2018-05-18T00:16:19.634Z,10.50
2018-05-18T00:18:47.389Z,10.50
2018-05-18T00:21:14.985Z,10.40
2018-05-18T00:23:42.574Z,10.30
2018-05-18T00:26:10.951Z,10.30
2018-05-18T00:28:38.603Z,10.30
2018-05-18T00:31:06.174Z,10.30
2018-05-18T00:33:37.540Z,10.20
2018-05-18T00:36:05.877Z,10.20
2018-05-18T00:38:33.627Z,9.90
2018-05-18T00:41:01.243Z,10.20
2018-05-18T00:43:28.850Z,10.10
2018-05-18T00:45:56.443Z,10.10
2018-05-18T00:48:24.025Z,10.10
2018-05-18T00:50:51.671Z,10.10
2018-05-18T00:53:19.280Z,10.00
2018-05-18T00:55:46.892Z,10.00
2018-05-18T00:58:14.470Z,10.00
2018-05-18T01:00:42.033Z,9.90
2018-05-18T01:03:09.715Z,9.90
2018-05-18T01:05:38.099Z,9.80
2018-05-18T01:08:05.858Z,9.80
2018-05-18T01:10:34.626Z,9.70
2018-05-18T01:13:02.233Z,9.70
2018-05-18T01:15:29.844Z,9.70
2018-05-18T01:17:58.378Z,9.60
2018-05-18T01:20:26.789Z,9.60
2018-05-18T01:22:54.425Z,9.60
2018-05-18T01:25:22.956Z,9.60
2018-05-18T01:27:51.432Z,9.50
2018-05-18T01:30:18.957Z,9.50
2018-05-18T01:32:46.586Z,9.50
2018-05-18T01:35:14.170Z,9.50
2018-05-18T01:37:42.620Z,9.40
2018-05-18T01:40:10.229Z,9.40
2018-05-18T01:42:38.644Z,9.30
2018-05-18T01:45:06.393Z,9.30
2018-05-18T01:47:34.002Z,9.30
2018-05-18T01:50:01.653Z,9.30
2018-05-18T01:52:29.287Z,9.20
2018-05-18T01:54:56.930Z,9.10
2018-05-18T01:57:24.501Z,9.00
2018-05-18T01:59:52.981Z,8.90
2018-05-18T02:02:21.336Z,8.90
2018-05-18T02:04:48.920Z,8.90
2018-05-18T02:07:17.286Z,8.90
2018-05-18T02:09:44.963Z,8.80
2018-05-18T02:12:12.561Z,8.80
2018-05-18T02:14:40.171Z,8.80
2018-05-18T02:17:07.799Z,8.70
2018-05-18T02:19:35.402Z,8.70
2018-05-18T02:22:03.068Z,8.70
2018-05-18T02:24:30.757Z,8.70
2018-05-18T02:26:58.320Z,8.70
2018-05-18T02:29:25.906Z,8.70
2018-05-18T02:31:53.538Z,8.60
2018-05-18T02:34:21.138Z,8.60
2018-05-18T02:36:48.759Z,8.50
2018-05-18T02:39:16.346Z,8.50
2018-05-18T02:41:43.917Z,8.40
2018-05-18T02:44:11.557Z,8.40
2018-05-18T02:46:39.926Z,8.30
2018-05-18T02:49:07.519Z,8.30
2018-05-18T02:51:36.075Z,8.30
2018-05-18T02:54:03.789Z,8.30
2018-05-18T02:56:31.396Z,8.20
2018-05-18T02:58:58.988Z,8.20
2018-05-18T03:01:26.788Z,8.10
2018-05-18T03:03:54.397Z,8.10
2018-05-18T03:06:22.730Z,7.90
2018-05-18T03:08:50.355Z,8.00
2018-05-18T03:11:17.970Z,7.90
2018-05-18T03:13:45.547Z,7.90
2018-05-18T03:16:13.157Z,7.90
2018-05-18T03:18:40.851Z,7.80
2018-05-18T03:21:08.518Z,7.90
2018-05-18T03:23:36.038Z,7.80
2018-05-18T03:26:03.670Z,7.80
2018-05-18T03:28:31.262Z,7.80
2018-05-18T03:30:58.894Z,7.80
2018-05-18T03:33:26.626Z,7.70
2018-05-18T03:35:54.217Z,7.70
2018-05-18T03:38:21.798Z,7.70
2018-05-18T03:40:49.413Z,7.70
2018-05-18T03:43:17.824Z,7.70
2018-05-18T03:45:45.422Z,7.60
2018-05-18T03:48:13.757Z,7.60
2018-05-18T03:50:41.366Z,7.60
2018-05-18T03:53:08.976Z,7.60
2018-05-18T03:55:36.568Z,7.60
2018-05-18T03:58:04.172Z,7.60
2018-05-18T04:00:31.785Z,7.60
2018-05-18T04:03:11.989Z,7.50
2018-05-18T04:05:51.245Z,7.50
2018-05-18T04:08:45.530Z,7.50
2018-05-18T04:11:13.820Z,7.50
2018-05-18T04:13:41.418Z,7.40
2018-05-18T04:16:09.001Z,7.40
2018-05-18T04:18:37.370Z,7.40
2018-05-18T04:21:04.944Z,7.40
2018-05-18T04:23:32.581Z,7.40
2018-05-18T04:26:00.191Z,7.30
2018-05-18T04:28:27.854Z,7.30
2018-05-18T04:30:55.441Z,7.40
2018-05-18T04:33:23.117Z,7.40
2018-05-18T04:35:50.735Z,7.40
2018-05-18T04:38:19.156Z,7.30
2018-05-18T04:40:46.745Z,7.30
2018-05-18T04:43:14.413Z,7.30
2018-05-18T04:45:42.022Z,7.30
2018-05-18T04:48:10.433Z,7.40
2018-05-18T04:50:38.013Z,7.40
2018-05-18T04:53:05.626Z,7.40
2018-05-18T04:55:34.003Z,7.40
2018-05-18T04:58:01.630Z,7.40
2018-05-18T05:00:29.202Z,7.50
2018-05-18T05:02:56.838Z,7.50
2018-05-18T05:05:24.433Z,7.50
2018-05-18T05:07:52.052Z,7.60
2018-05-18T05:10:19.971Z,7.60
2018-05-18T05:12:47.577Z,7.70
2018-05-18T05:15:15.148Z,7.80
2018-05-18T05:17:43.081Z,7.80
2018-05-18T05:20:11.493Z,8.00
2018-05-18T05:22:39.082Z,7.90
2018-05-18T05:25:06.688Z,8.00
2018-05-18T05:27:35.079Z,8.00
2018-05-18T05:30:03.011Z,8.00
2018-05-18T05:32:31.690Z,8.10
2018-05-18T05:34:59.285Z,8.10
2018-05-18T05:37:26.870Z,8.20
2018-05-18T05:39:55.258Z,8.30
2018-05-18T05:42:22.825Z,8.30
2018-05-18T05:44:51.178Z,8.40
2018-05-18T05:47:19.527Z,8.40
2018-05-18T05:49:47.188Z,8.40
2018-05-18T05:52:14.813Z,8.40
2018-05-18T05:54:43.002Z,8.40
2018-05-18T05:57:10.646Z,8.40
2018-05-18T05:59:38.234Z,8.40
2018-05-18T06:02:05.854Z,8.40
2018-05-18T06:04:34.309Z,8.50
2018-05-18T06:07:01.964Z,8.50
2018-05-18T06:09:29.592Z,8.60
2018-05-18T06:11:57.225Z,8.70
2018-05-18T06:14:24.827Z,8.70
2018-05-18T06:16:52.437Z,8.80
2018-05-18T06:19:20.008Z,9.00
2018-05-18T06:21:48.319Z,9.00
2018-05-18T06:24:15.942Z,9.10
2018-05-18T06:26:43.510Z,9.10
2018-05-18T06:29:11.140Z,9.20
2018-05-18T06:31:38.882Z,9.30
2018-05-18T06:34:06.545Z,9.40
2018-05-18T06:36:34.153Z,9.30
2018-05-18T06:39:01.729Z,9.30
2018-05-18T06:41:29.332Z,9.40
2018-05-18T06:43:56.893Z,9.40
2018-05-18T06:46:25.289Z,9.60
2018-05-18T06:48:53.288Z,9.60
2018-05-18T06:51:20.888Z,9.70
2018-05-18T06:53:49.226Z,10.00
2018-05-18T06:56:16.818Z,10.00
2018-05-18T06:58:44.463Z,10.20
2018-05-18T07:01:12.320Z,10.30
2018-05-18T07:03:40.689Z,10.40
2018-05-18T07:06:08.903Z,10.50
2018-05-18T07:08:36.596Z,10.60
2018-05-18T07:11:04.994Z,10.80
2018-05-18T07:13:32.609Z,10.80
2018-05-18T07:16:00.192Z,10.80
2018-05-18T07:18:31.369Z,10.90
2018-05-18T07:20:59.868Z,10.90
2018-05-18T07:23:28.323Z,10.90
2018-05-18T07:25:55.990Z,11.00
2018-05-18T07:28:24.339Z,11.30
2018-05-18T07:30:51.960Z,11.30
2018-05-18T07:33:19.575Z,11.40
2018-05-18T07:35:48.303Z,11.50
2018-05-18T07:38:16.092Z,11.50
2018-05-18T07:40:43.875Z,11.60
2018-05-18T07:43:11.497Z,11.70
2018-05-18T07:45:39.075Z,11.80
2018-05-18T07:48:06.672Z,11.90
2018-05-18T07:50:34.241Z,11.90
2018-05-18T07:53:01.830Z,12.00
2018-05-18T07:55:29.409Z,12.10
2018-05-18T07:57:57.770Z,12.20
2018-05-18T08:00:26.136Z,12.30
2018-05-18T08:02:53.737Z,12.30
2018-05-18T08:05:22.178Z,12.30
2018-05-18T08:07:49.855Z,12.30
2018-05-18T08:10:18.234Z,12.30
2018-05-18T08:12:45.858Z,12.30
2018-05-18T08:15:13.475Z,12.40
2018-05-18T08:17:41.847Z,12.70
2018-05-18T08:20:09.480Z,12.70
2018-05-18T08:22:37.086Z,12.80
2018-05-18T08:25:04.918Z,12.90
2018-05-18T08:27:32.578Z,12.90
2018-05-18T08:30:00.647Z,13.00
2018-05-18T08:32:28.333Z,13.10
2018-05-18T08:34:56.095Z,13.20
2018-05-18T08:37:23.892Z,13.20
2018-05-18T08:39:51.826Z,13.20
2018-05-18T08:42:19.438Z,13.10
2018-05-18T08:44:47.036Z,13.10
2018-05-18T08:47:14.756Z,13.20
2018-05-18T08:49:43.181Z,13.30
2018-05-18T08:52:11.570Z,13.30
2018-05-18T08:54:39.295Z,13.50
2018-05-18T08:57:07.818Z,13.90
2018-05-18T08:59:35.959Z,13.80
2018-05-18T09:02:03.598Z,14.00
2018-05-18T09:04:31.309Z,14.00
2018-05-18T09:06:59.095Z,14.20
2018-05-18T09:09:26.862Z,14.20
2018-05-18T09:11:54.521Z,14.20
2018-05-18T09:14:22.109Z,14.10
2018-05-18T09:16:49.772Z,14.10
2018-05-18T09:19:17.342Z,14.10
2018-05-18T09:21:45.030Z,14.20
2018-05-18T09:24:13.429Z,14.20
2018-05-18T09:26:41.082Z,14.20
2018-05-18T09:29:08.697Z,14.20
2018-05-18T09:31:38.343Z,14.30
2018-05-18T09:34:06.946Z,14.80
2018-05-18T09:36:34.590Z,14.70
2018-05-18T09:39:02.288Z,15.00
2018-05-18T09:41:29.983Z,15.20
2018-05-18T09:43:57.666Z,15.40
2018-05-18T09:46:26.038Z,15.60
2018-05-18T09:48:53.643Z,15.60
2018-05-18T09:51:22.021Z,15.40
2018-05-18T09:53:49.643Z,15.40
2018-05-18T09:56:17.250Z,15.40
2018-05-18T09:58:44.946Z,15.40
2018-05-18T10:01:12.565Z,15.40
2018-05-18T10:03:40.161Z,15.50
2018-05-18T10:06:08.576Z,15.80
2018-05-18T10:08:36.258Z,15.70
2018-05-18T10:11:05.267Z,16.00
2018-05-18T10:13:33.703Z,16.10
2018-05-18T10:16:01.574Z,16.20
2018-05-18T10:18:30.206Z,16.50
2018-05-18T10:20:59.397Z,16.50
2018-05-18T10:23:27.550Z,16.60
2018-05-18T10:25:55.217Z,16.60
2018-05-18T10:28:26.984Z,16.80
2018-05-18T10:30:54.743Z,16.90
2018-05-18T10:33:22.505Z,17.10
2018-05-18T10:35:50.547Z,17.30
2018-05-18T10:38:18.274Z,17.50
2018-05-18T10:40:46.699Z,17.60
2018-05-18T10:43:16.596Z,17.70
2018-05-18T10:45:45.696Z,17.80
2018-05-18T10:48:14.159Z,17.80
2018-05-18T10:50:42.834Z,17.70
2018-05-18T10:53:10.987Z,17.60
2018-05-18T10:55:39.942Z,17.60
2018-05-18T10:58:08.011Z,17.60
2018-05-18T11:00:36.843Z,17.60
2018-05-18T11:03:06.414Z,17.60
2018-05-18T11:05:34.133Z,17.60
2018-05-18T11:08:02.065Z,17.60
2018-05-18T11:10:29.693Z,17.70
2018-05-18T11:12:57.396Z,17.70
2018-05-18T11:15:26.606Z,18.00
2018-05-18T11:17:55.026Z,17.90
2018-05-18T11:20:23.309Z,18.00
2018-05-18T11:22:51.322Z,18.20
2018-05-18T11:25:19.812Z,18.40
2018-05-18T11:27:48.267Z,18.60
2018-05-18T11:30:16.411Z,18.60
2018-05-18T11:32:46.245Z,18.60
2018-05-18T11:35:16.882Z,18.80
2018-05-18T11:37:46.467Z,18.80
2018-05-18T11:40:15.085Z,19.10
2018-05-18T11:42:42.713Z,19.40
2018-05-18T11:45:10.354Z,19.60
2018-05-18T11:47:38.821Z,19.60
2018-05-18T11:50:07.221Z,19.60
2018-05-18T11:52:34.889Z,19.60
2018-05-18T11:55:02.466Z,19.70
2018-05-18T11:57:30.073Z,19.80
2018-05-18T11:59:57.710Z,19.90
2018-05-18T12:02:25.351Z,19.90
2018-05-18T12:04:53.162Z,19.90
2018-05-18T12:07:20.867Z,19.90
2018-05-18T12:09:48.966Z,19.80
2018-05-18T12:12:16.569Z,19.70
2018-05-18T12:14:44.254Z,19.70
2018-05-18T12:17:11.849Z,19.60
2018-05-18T12:19:41.382Z,19.60
2018-05-18T12:22:08.986Z,19.80
2018-05-18T12:24:36.587Z,20.10
2018-05-18T12:27:04.897Z,20.30
2018-05-18T12:29:32.555Z,20.30
2018-05-18T12:32:00.383Z,20.30
2018-05-18T12:34:27.974Z,20.30
2018-05-18T12:36:56.343Z,20.40
2018-05-18T12:39:23.937Z,20.40
2018-05-18T12:41:53.375Z,20.60
2018-05-18T12:44:21.025Z,20.80
2018-05-18T12:46:48.621Z,21.10
2018-05-18T12:49:16.989Z,21.50
2018-05-18T12:51:44.601Z,21.50
2018-05-18T12:54:12.276Z,21.50
2018-05-18T12:56:39.921Z,21.40
2018-05-18T12:59:08.418Z,21.50
2018-05-18T13:01:36.021Z,21.50
2018-05-18T13:04:03.801Z,21.50
2018-05-18T13:06:31.406Z,21.40
2018-05-18T13:08:59.025Z,21.40
2018-05-18T13:11:26.670Z,21.40
2018-05-18T13:13:54.264Z,21.40
2018-05-18T13:16:22.632Z,21.50
2018-05-18T13:18:50.264Z,21.50
2018-05-18T13:21:18.025Z,21.70
2018-05-18T13:23:45.614Z,21.90
2018-05-18T13:26:13.849Z,21.90
2018-05-18T13:28:41.446Z,21.80
2018-05-18T13:31:09.807Z,21.90
2018-05-18T13:33:37.557Z,21.80
2018-05-18T13:36:05.388Z,21.90
2018-05-18T13:38:33.251Z,21.90
2018-05-18T13:41:01.058Z,22.00
2018-05-18T13:43:28.710Z,22.40
2018-05-18T13:45:56.437Z,22.70
2018-05-18T13:48:24.105Z,22.90
2018-05-18T13:50:52.048Z,23.00
2018-05-18T13:53:19.794Z,23.10
2018-05-18T13:55:47.496Z,23.20
2018-05-18T13:58:15.270Z,23.30
2018-05-18T14:00:42.968Z,23.00
2018-05-18T14:03:11.335Z,23.40
2018-05-18T14:05:39.255Z,23.40
2018-05-18T14:08:07.821Z,23.50
2018-05-18T14:10:36.163Z,23.70
2018-05-18T14:13:08.025Z,24.00
2018-05-18T14:15:37.313Z,23.80
2018-05-18T14:18:05.896Z,23.80
2018-05-18T14:20:34.487Z,23.90
2018-05-18T14:23:02.935Z,24.00
2018-05-18T14:25:30.570Z,24.00
2018-05-18T14:27:58.940Z,23.90
2018-05-18T14:30:26.567Z,23.80
2018-05-18T14:32:54.260Z,23.60
2018-05-18T14:35:22.550Z,23.50
2018-05-18T14:37:50.739Z,23.40
2018-05-18T14:40:19.169Z,23.40
2018-05-18T14:42:46.916Z,23.40
2018-05-18T14:45:14.658Z,23.70
2018-05-18T14:47:42.285Z,24.20
2018-05-18T14:50:09.928Z,24.60
2018-05-18T14:52:37.510Z,24.80
2018-05-18T14:55:06.058Z,25.10
2018-05-18T14:57:33.660Z,25.10
2018-05-18T15:00:01.342Z,25.20
2018-05-18T15:02:28.946Z,25.20
2018-05-18T15:04:56.523Z,25.50
2018-05-18T15:07:24.300Z,25.60
2018-05-18T15:09:52.053Z,25.70
2018-05-18T15:12:19.704Z,25.70
2018-05-18T15:14:47.314Z,25.60
2018-05-18T15:17:14.956Z,25.70
2018-05-18T15:19:42.551Z,25.80
2018-05-18T15:22:10.604Z,25.90
2018-05-18T15:24:38.917Z,26.00
2018-05-18T15:27:07.299Z,26.10
2018-05-18T15:29:36.166Z,26.10
2018-05-18T15:32:05.153Z,25.90
2018-05-18T15:34:33.811Z,25.90
2018-05-18T15:37:01.481Z,25.50
2018-05-18T15:39:29.211Z,25.50
2018-05-18T15:41:56.833Z,25.40
2018-05-18T15:44:24.582Z,25.60
2018-05-18T15:46:52.285Z,26.30
2018-05-18T15:49:20.148Z,26.80
2018-05-18T15:51:47.861Z,26.60
2018-05-18T15:54:15.579Z,26.30
2018-05-18T15:56:43.185Z,26.40
2018-05-18T15:59:11.639Z,27.20
2018-05-18T16:01:39.590Z,27.20
2018-05-18T16:04:07.359Z,27.70
2018-05-18T16:06:35.149Z,27.80
2018-05-18T16:09:04.407Z,28.30
2018-05-18T16:11:32.078Z,28.30
2018-05-18T16:14:00.679Z,28.00
2018-05-18T16:16:28.471Z,28.00
2018-05-18T16:18:56.129Z,27.90
2018-05-18T16:21:23.790Z,28.10
2018-05-18T16:23:51.433Z,28.40
2018-05-18T16:26:19.092Z,28.60
2018-05-18T16:28:46.773Z,28.60
2018-05-18T16:31:14.380Z,28.50
2018-05-18T16:33:42.755Z,28.40
2018-05-18T16:36:11.621Z,28.80
2018-05-18T16:38:39.391Z,28.80
2018-05-18T16:41:07.000Z,29.30
2018-05-18T16:43:34.616Z,29.60
2018-05-18T16:46:02.269Z,30.00
2018-05-18T16:48:29.933Z,30.20
2018-05-18T16:50:57.700Z,30.00
2018-05-18T16:53:26.113Z,30.10
2018-05-18T16:55:53.762Z,30.10
2018-05-18T16:58:21.416Z,30.10
2018-05-18T17:00:49.214Z,29.80
2018-05-18T17:03:16.892Z,29.60
2018-05-18T17:05:45.188Z,29.70
2018-05-18T17:08:12.979Z,30.00
2018-05-18T17:10:40.681Z,29.80
2018-05-18T17:13:09.093Z,29.60
2018-05-18T17:15:36.687Z,29.60
2018-05-18T17:18:04.338Z,29.90
2018-05-18T17:20:31.950Z,30.20
2018-05-18T17:22:59.555Z,29.70
2018-05-18T17:25:27.170Z,29.40
2018-05-18T17:27:54.853Z,29.30
2018-05-18T17:30:28.484Z,29.40
2018-05-18T17:32:56.148Z,29.40
2018-05-18T17:35:23.884Z,29.60
2018-05-18T17:37:51.585Z,29.60
2018-05-18T17:40:19.252Z,29.70
2018-05-18T17:42:46.910Z,29.30
2018-05-18T17:45:18.520Z,29.20
2018-05-18T17:47:46.909Z,28.60
2018-05-18T17:50:15.456Z,28.60
2018-05-18T17:52:43.405Z,28.50
2018-05-18T17:55:11.802Z,28.60
2018-05-18T17:57:39.589Z,28.70
2018-05-18T18:00:07.185Z,28.90
2018-05-18T18:02:34.786Z,29.00
2018-05-18T18:05:02.365Z,29.10
2018-05-18T18:07:29.973Z,29.00
2018-05-18T18:09:57.951Z,29.00
2018-05-18T18:12:25.545Z,29.00
2018-05-18T18:14:53.149Z,29.00
2018-05-18T18:17:20.753Z,28.80
2018-05-18T18:19:49.321Z,28.90
2018-05-18T18:22:16.900Z,28.90
2018-05-18T18:24:46.151Z,27.50
2018-05-18T18:27:14.611Z,27.50
2018-05-18T18:29:42.238Z,27.00
2018-05-18T18:32:09.837Z,26.30
2018-05-18T18:34:37.441Z,25.60
2018-05-18T18:37:05.049Z,25.10
2018-05-18T18:39:32.677Z,24.60
2018-05-18T18:42:00.252Z,24.40
2018-05-18T18:44:27.861Z,24.00
2018-05-18T18:46:55.438Z,23.60
2018-05-18T18:49:23.047Z,23.30
2018-05-18T18:51:51.465Z,22.40
2018-05-18T18:54:19.032Z,22.40
2018-05-18T18:56:46.603Z,22.20
2018-05-18T18:59:14.205Z,22.00
2018-05-18T19:01:41.772Z,21.60
2018-05-18T19:04:09.387Z,21.40
2018-05-18T19:06:36.974Z,20.80
2018-05-18T19:09:07.383Z,20.40
2018-05-18T19:11:34.998Z,20.20
2018-05-18T19:14:02.724Z,19.80
2018-05-18T19:16:30.293Z,19.30
2018-05-18T19:18:57.930Z,18.90
2018-05-18T19:21:25.718Z,18.60
2018-05-18T19:23:53.307Z,18.40
2018-05-18T19:26:20.925Z,18.20
2018-05-18T19:28:48.576Z,17.90
2018-05-18T19:31:16.921Z,17.20
2018-05-18T19:33:44.547Z,17.20
2018-05-18T19:36:12.129Z,16.80
2018-05-18T19:38:39.729Z,16.50
2018-05-18T19:41:08.152Z,16.00
2018-05-18T19:43:35.753Z,16.00
2018-05-18T19:46:03.362Z,15.80
2018-05-18T19:48:30.954Z,15.60
2018-05-18T19:50:58.561Z,15.50
2018-05-18T19:53:26.139Z,15.30
2018-05-18T19:55:53.742Z,15.20
2018-05-18T19:58:21.342Z,15.10
2018-05-18T20:00:48.951Z,15.00
2018-05-18T20:03:16.594Z,14.90
2018-05-18T20:05:44.845Z,14.80
2018-05-18T20:08:12.445Z,14.70
2018-05-18T20:10:42.129Z,14.50
2018-05-18T20:13:09.703Z,14.50
2018-05-18T20:15:37.306Z,14.40
2018-05-18T20:18:04.914Z,14.40
2018-05-18T20:20:33.303Z,14.30
2018-05-18T20:23:00.921Z,14.30
2018-05-18T20:25:29.081Z,14.20
2018-05-18T20:27:56.660Z,14.10
2018-05-18T20:30:24.269Z,14.00
2018-05-18T20:32:51.855Z,14.00
2018-05-18T20:35:20.225Z,13.90
2018-05-18T20:37:49.226Z,13.80
2018-05-18T20:40:17.748Z,13.80
2018-05-18T20:42:45.314Z,13.80
2018-05-18T20:45:12.963Z,13.80
2018-05-18T20:47:41.285Z,13.70
2018-05-18T20:50:08.858Z,13.60
2018-05-18T20:52:36.483Z,13.70
2018-05-18T20:55:04.086Z,13.60
2018-05-18T20:57:31.669Z,13.50
2018-05-18T21:00:00.063Z,13.30
2018-05-18T21:02:27.675Z,13.30
2018-05-18T21:04:55.310Z,13.30
2018-05-18T21:07:22.940Z,13.20
2018-05-18T21:09:51.315Z,13.00
2018-05-18T21:12:18.936Z,13.00
2018-05-18T21:14:46.616Z,13.00
2018-05-18T21:17:14.254Z,12.90
2018-05-18T21:19:42.078Z,12.90
2018-05-18T21:22:10.489Z,12.80
2018-05-18T21:24:38.094Z,12.80
2018-05-18T21:27:05.708Z,12.80
2018-05-18T21:29:33.284Z,12.80
2018-05-18T21:32:00.899Z,12.70
2018-05-18T21:34:28.543Z,12.70
2018-05-18T21:36:56.392Z,12.70
2018-05-18T21:39:24.049Z,12.80
2018-05-18T21:41:51.791Z,12.80
2018-05-18T21:44:20.167Z,12.70
2018-05-18T21:46:48.548Z,12.70
2018-05-18T21:49:16.890Z,12.70
2018-05-18T21:51:44.540Z,12.70
2018-05-18T21:54:12.155Z,12.70
2018-05-18T21:56:39.753Z,12.70
2018-05-18T21:59:07.366Z,12.80
2018-05-18T22:01:34.941Z,12.80
2018-05-18T22:04:02.549Z,12.80
2018-05-18T22:06:30.315Z,12.80
2018-05-18T22:08:58.611Z,12.90
2018-05-18T22:11:26.216Z,13.00
2018-05-18T22:13:54.306Z,13.10
2018-05-18T22:16:21.969Z,13.10
2018-05-18T22:18:49.677Z,13.20
2018-05-18T22:21:18.434Z,13.30
2018-05-18T22:23:46.188Z,13.30
2018-05-18T22:26:13.967Z,13.30
2018-05-18T22:28:41.624Z,13.40
2018-05-18T22:31:10.001Z,13.50
2018-05-18T22:33:40.162Z,13.40
2018-05-18T22:36:08.434Z,13.40
2018-05-18T22:38:36.535Z,13.40
2018-05-18T22:41:05.000Z,13.30
2018-05-18T22:43:34.420Z,13.20
2018-05-18T22:46:06.270Z,13.10
2018-05-18T22:48:37.925Z,13.10
2018-05-18T22:51:09.182Z,13.10
2018-05-18T22:53:38.283Z,13.10
2018-05-18T22:56:07.902Z,13.10
2018-05-18T22:58:39.462Z,13.10
2018-05-18T23:01:10.142Z,13.10
2018-05-18T23:03:39.706Z,13.10
2018-05-18T23:06:07.921Z,13.10
2018-05-18T23:08:38.902Z,13.00
2018-05-18T23:11:07.568Z,12.90
2018-05-18T23:13:35.347Z,12.80
2018-05-18T23:16:03.400Z,12.70
2018-05-18T23:18:32.251Z,12.70
2018-05-18T23:21:01.323Z,12.70
2018-05-18T23:23:29.174Z,12.70
2018-05-18T23:25:56.868Z,12.70
2018-05-18T23:28:24.498Z,12.70
2018-05-18T23:30:52.645Z,12.70
2018-05-18T23:33:21.780Z,12.60
2018-05-18T23:35:49.612Z,12.50
2018-05-18T23:38:17.587Z,12.50
2018-05-18T23:40:45.566Z,12.40
2018-05-18T23:43:14.293Z,12.30
2018-05-18T23:45:42.314Z,12.30
2018-05-18T23:48:10.164Z,12.30
2018-05-18T23:50:38.018Z,12.20
2018-05-18T23:53:06.878Z,12.20
2018-05-18T23:55:34.697Z,12.10
2018-05-18T23:58:03.904Z,12.10
